Date,TemperatureHighF,TemperatureAvgF,TemperatureLowF,DewpointHighF,DewpointAvgF,DewpointLowF,HumidityHigh,HumidityAvg,HumidityLow,PressureMaxIn,PressureMinIn,WindSpeedMaxMPH,WindSpeedAvgMPH,GustSpeedMaxMPH,PrecipitationSumIn
2013-1-1,50.4,46.7,38.3,49.8,43.7,24.6,100,90,56,30.06,29.91,3,0,6,0.96
2013-1-2,46.3,38.1,35.3,46.3,36.2,32.6,100,93,86,30.06,29.88,3,1,8,0.04
2013-1-3,38.3,34.1,26.4,34.7,28.5,21.9,97,81,57,30.27,30.03,3,1,6,0.00
2013-1-4,41.5,29.3,21.0,25.7,18.2,12.9,88,65,33,30.30,30.18,4,1,10,0.00
2013-1-5,49.1,33.6,21.0,28.9,20.0,15.8,81,60,30,30.21,30.09,4,1,6,0.00
2013-1-6,45.5,38.0,35.4,36.9,30.4,24.9,92,75,52,30.12,30.00,4,1,10,0.00
2013-1-7,52.3,35.5,23.5,30.4,22.7,17.9,88,62,31,30.27,30.12,4,1,7,0.00
2013-1-8,54.2,43.0,29.9,44.8,31.9,22.1,84,65,49,30.30,30.21,3,1,8,0.00
2013-1-9,60.4,53.9,49.4,55.9,48.9,44.9,96,84,65,30.33,30.24,2,0,4,0.00
2013-1-10,63.3,55.8,48.2,58.4,49.6,45.1,100,82,53,30.33,30.12,4,1,8,0.04
2013-1-11,61.4,58.9,55.6,61.4,58.7,54.3,100,99,96,30.15,30.03,3,1,8,0.70
2013-1-12,69.8,62.1,57.7,66.1,57.8,51.3,100,87,54,30.09,29.97,4,1,9,0.09
2013-1-13,64.8,60.8,58.5,60.4,55.2,52.9,100,82,67,30.03,29.91,5,1,8,0.87
2013-1-14,60.3,52.9,43.5,60.3,52.8,43.5,100,100,96,30.09,29.94,3,0,8,1.45
2013-1-15,61.7,54.8,44.7,61.7,54.8,44.7,100,100,100,30.03,29.88,4,1,10,2.91
2013-1-16,60.8,56.5,51.6,60.8,56.0,50.9,100,99,88,29.91,29.83,4,1,10,0.74
2013-1-17,51.7,42.3,32.0,51.7,41.5,28.0,100,97,84,30.15,29.59,6,1,14,1.37
2013-1-18,49.3,36.3,27.9,30.1,27.1,25.0,89,71,42,30.39,30.15,2,1,4,0.00
2013-1-19,50.4,34.9,25.3,30.2,24.2,20.6,91,68,35,30.30,30.06,3,1,8,0.00
2013-1-20,55.6,36.8,25.5,32.8,25.3,22.5,91,66,36,30.06,29.94,3,1,7,0.00
2013-1-21,46.9,33.9,24.1,31.5,19.0,10.6,89,57,34,30.03,29.94,5,1,8,0.00
2013-1-22,35.7,27.6,21.2,11.0,6.6,3.1,42,37,32,30.18,30.00,6,2,10,0.00
2013-1-23,45.3,32.4,27.0,24.4,12.8,4.8,70,42,34,30.24,30.06,4,1,9,0.00
2013-1-24,45.2,35.7,23.8,33.6,16.3,4.6,81,45,30,30.24,30.03,7,2,17,0.00
2013-1-25,38.2,30.8,24.3,37.5,19.8,6.6,98,64,35,30.24,30.03,4,1,10,0.04
2013-1-26,48.1,36.9,27.8,38.2,27.6,19.0,99,72,36,30.15,30.06,3,1,5,0.00
2013-1-27,49.4,37.6,25.5,28.9,24.6,20.3,89,61,41,30.27,30.15,4,1,7,0.00
2013-1-28,57.1,45.8,39.1,48.1,35.8,22.4,91,69,49,30.27,30.15,4,1,10,0.00
2013-1-29,65.3,51.9,39.2,58.7,48.1,36.7,100,88,64,30.18,29.88,4,1,6,0.00
2013-1-30,63.7,61.1,58.6,61.2,58.8,55.7,100,92,84,29.88,27.58,6,3,22,0.74
2013-2-6,51.4,38.8,33.1,21.9,20.9,20.3,62,49,30,28.08,28.02,1,0,2,0.00
2013-2-7,50.3,42.6,32.4,43.8,34.2,21.1,97,73,44,28.08,27.88,3,1,7,0.20
2013-2-8,50.8,42.9,33.3,46.2,36.7,25.3,100,81,44,28.11,27.88,5,1,17,0.05
2013-2-9,61.0,39.6,24.3,29.4,23.2,18.5,88,57,24,28.23,28.08,3,1,6,0.00
2013-2-10,53.8,46.4,39.4,49.6,28.5,20.2,100,53,29,28.23,28.02,5,2,10,0.91
2013-2-11,53.1,51.3,48.9,53.1,48.6,39.7,100,92,64,28.08,27.99,4,2,8,0.45
2013-2-21,53.3,43.7,40.6,37.5,31.7,18.5,87,68,27,30.03,27.88,4,1,6,0.75
2013-2-22,47.5,42.8,39.4,43.1,38.6,35.5,96,85,71,30.03,29.91,4,2,10,0.62
2013-2-23,57.3,47.9,41.0,53.0,45.8,38.9,100,93,77,29.91,29.74,3,0,5,0.50
2013-2-24,57.8,41.6,29.3,39.6,28.2,18.8,100,66,26,29.91,29.80,5,1,8,0.00
2013-2-25,53.2,40.4,28.5,40.9,27.1,21.1,93,62,37,29.94,29.74,5,1,10,0.00
2013-2-26,50.8,43.9,37.0,46.2,38.8,28.6,97,83,61,29.77,27.52,6,3,13,0.91
2013-2-27,51.7,41.3,35.3,32.5,27.5,24.4,83,59,39,27.85,27.70,5,3,12,0.04
2013-2-28,39.4,34.2,31.5,27.1,20.0,17.4,72,55,50,27.94,27.79,5,2,10,0.00
2013-3-1,35.5,32.7,31.1,27.6,23.3,19.2,82,67,55,27.88,27.85,4,2,7,0.00
2013-3-2,33.3,30.5,26.7,27.2,23.6,16.4,86,73,55,27.88,27.79,4,2,10,0.05
2013-3-3,35.0,27.6,22.3,18.5,14.2,10.9,74,54,42,27.94,27.82,5,2,11,0.04
2013-3-4,54.5,35.2,18.3,24.7,18.0,11.0,77,52,30,28.05,27.94,4,1,7,0.00
2013-3-5,55.2,45.7,33.0,52.3,36.8,19.7,98,72,51,27.96,27.61,7,2,24,0.45
2013-3-6,33.3,29.5,26.6,24.0,20.1,12.8,80,65,47,28.11,27.79,7,4,19,0.00
2013-3-7,48.9,35.8,27.3,26.1,22.6,19.0,79,59,38,28.17,28.08,5,2,8,0.00
2013-3-8,58.4,38.1,21.7,29.3,19.4,13.4,81,51,25,28.23,28.11,4,1,7,0.00
2013-3-9,62.1,44.0,26.8,27.2,22.2,16.3,72,44,25,28.20,28.11,4,1,8,0.00
2013-3-10,66.1,54.1,46.6,34.5,26.8,23.0,48,35,26,28.14,27.99,5,2,10,0.00
2013-3-11,57.7,52.7,50.0,51.6,45.9,34.3,99,79,48,27.99,27.76,5,2,12,0.96
2013-3-12,52.1,42.8,34.4,48.9,30.2,20.7,97,65,37,28.02,27.79,5,2,12,0.08
2013-3-13,46.9,36.6,26.6,26.3,19.2,11.6,84,51,32,28.14,27.99,7,3,12,0.00
2013-3-14,48.6,34.8,23.4,18.1,12.4,8.9,55,39,22,28.23,28.11,5,2,13,0.00
2013-3-15,67.0,48.1,27.5,36.0,27.7,18.2,78,47,29,28.14,27.91,6,2,18,0.00
2013-3-16,70.5,59.8,48.5,39.6,35.2,32.0,56,40,30,27.94,27.82,6,3,13,0.00
2013-3-17,67.3,57.2,45.8,45.4,38.2,32.6,74,50,37,27.91,27.82,5,2,12,0.00
2013-3-18,54.0,49.1,44.4,51.4,45.5,39.6,100,88,71,27.88,27.76,5,2,8,0.29
2013-3-19,56.4,47.0,34.4,48.2,28.1,11.6,100,54,26,28.02,27.82,6,2,10,0.00
2013-3-20,54.7,41.8,31.8,23.6,15.8,10.5,60,37,20,28.05,27.82,6,2,21,0.00
2013-3-21,40.9,31.5,22.8,21.3,10.3,5.0,58,40,29,27.91,27.82,7,3,20,0.00
2013-3-22,48.0,36.0,24.4,25.4,16.7,8.5,53,44,35,27.91,27.85,2,0,4,0.00
2013-3-23,53.5,45.8,39.4,47.4,38.9,25.3,94,78,51,27.91,27.70,4,1,11,0.21
2013-3-24,53.1,47.2,37.6,50.4,43.6,24.9,100,88,58,27.79,27.46,7,2,17,1.45
2013-3-25,37.5,31.7,28.8,25.0,18.5,14.8,69,55,48,27.96,27.61,7,4,20,0.00
2013-3-26,36.3,30.7,27.3,22.3,19.5,16.0,76,62,47,28.20,27.96,7,3,11,0.00
2013-3-27,48.7,36.2,27.0,21.4,18.7,14.0,71,50,30,28.26,28.17,6,2,10,0.00
2013-3-28,54.0,38.1,22.3,24.0,18.9,15.5,75,49,27,28.26,28.17,7,2,11,0.00
2013-3-29,59.6,40.6,26.1,28.3,23.3,18.6,75,52,29,28.29,28.14,4,1,6,0.00
2013-3-30,66.1,52.2,41.0,49.1,36.3,28.1,89,59,28,28.14,27.96,5,1,12,0.25
2013-3-31,60.7,54.9,51.5,52.4,50.2,45.0,97,85,56,27.96,27.82,5,2,12,0.70
2013-4-1,64.0,54.3,43.7,53.3,40.1,28.9,98,64,34,27.99,27.82,4,2,10,0.00
2013-4-2,58.6,47.3,36.9,29.1,22.0,15.8,54,38,24,28.11,27.96,4,2,7,0.00
2013-4-3,61.7,50.4,38.5,29.2,22.9,16.3,46,34,26,28.11,28.05,4,1,6,0.00
2013-4-4,49.3,40.6,36.9,38.7,35.1,23.3,93,82,36,28.08,27.85,4,1,9,0.58
2013-4-5,60.0,46.6,38.1,41.3,35.9,28.1,99,71,32,27.99,27.85,5,1,9,0.00
2013-4-6,69.1,48.8,29.8,39.9,29.0,25.8,88,53,24,28.08,27.99,5,1,8,0.00
2013-4-7,71.6,56.5,40.9,39.7,33.3,26.2,65,42,29,28.11,27.96,5,2,12,0.00
2013-4-8,73.5,60.4,50.9,48.3,41.3,35.8,74,52,32,28.05,27.96,5,2,11,0.00
2013-4-9,79.5,64.1,48.5,53.5,44.9,42.4,82,53,30,28.11,27.96,4,1,10,0.00
2013-4-10,83.3,68.1,49.6,55.5,46.4,42.8,86,50,28,28.05,27.85,5,2,8,0.00
2013-4-11,76.8,66.1,59.5,61.7,50.5,44.4,96,59,35,27.88,27.61,6,2,14,1.17
2013-4-12,64.9,58.2,42.8,59.2,44.0,27.4,98,64,29,27.85,27.58,6,2,15,0.29
2013-4-13,70.1,53.4,36.1,39.4,30.5,25.1,91,48,22,27.99,27.85,6,2,10,0.00
2013-4-14,62.2,49.2,36.7,49.5,36.7,28.1,91,64,35,27.99,27.85,6,1,12,0.04
2013-4-15,75.0,62.1,52.1,55.3,50.2,45.7,96,69,39,28.05,27.85,4,1,10,0.04
2013-4-16,78.1,66.1,58.1,57.0,52.8,50.2,87,65,40,28.17,28.05,4,1,8,0.00
2013-4-17,83.9,66.5,58.1,59.9,54.5,47.7,100,70,31,28.14,27.96,4,1,11,1.50
2013-4-18,76.4,65.8,57.2,62.2,54.7,47.8,100,72,37,27.99,27.82,4,1,10,0.00
2013-4-19,66.2,56.9,41.7,60.9,47.6,27.3,91,72,49,27.96,27.70,6,3,13,0.54
2013-4-20,59.4,46.4,34.3,27.9,24.7,21.4,64,45,28,28.17,27.96,5,2,12,0.00
2013-4-21,67.1,49.5,30.9,34.0,27.3,23.7,80,47,24,28.29,28.14,4,2,8,0.00
2013-4-22,70.7,55.2,38.7,37.0,31.5,28.3,74,43,26,28.23,28.02,4,2,9,0.00
2013-4-23,75.3,56.6,36.7,37.5,32.3,26.7,71,43,24,28.14,27.96,4,1,7,0.00
2013-4-24,69.4,57.7,47.8,57.3,46.8,37.4,91,69,44,28.08,27.99,5,2,12,0.17
2013-4-25,67.7,51.7,40.6,44.8,32.1,21.3,91,54,20,28.23,28.08,4,2,8,0.00
2013-4-26,74.3,52.9,31.5,45.8,29.8,24.2,79,47,21,28.29,28.14,4,1,8,0.12
2013-4-27,58.8,52.9,50.0,50.4,47.3,42.5,96,82,55,28.26,28.05,3,1,6,0.83
2013-4-28,55.4,53.1,50.9,55.4,52.6,49.1,100,98,86,28.08,27.94,3,1,6,2.40
2013-4-29,71.8,58.9,49.7,57.3,48.3,40.9,100,74,35,27.99,27.88,3,1,7,0.05
2013-4-30,77.1,58.8,42.1,55.6,45.4,38.7,93,65,32,28.02,27.91,4,1,8,0.00
2013-5-1,72.4,63.1,56.4,52.7,47.4,43.8,79,58,37,28.11,28.02,4,2,8,0.00
2013-5-2,69.6,61.3,56.7,51.3,48.0,44.6,75,62,45,28.11,28.02,4,2,9,0.00
2013-5-3,61.3,57.4,55.0,52.3,48.6,42.3,88,73,49,28.05,27.88,5,2,13,0.00
2013-5-4,56.4,51.9,48.7,51.4,46.5,36.0,100,83,53,27.88,27.79,5,3,13,1.45
2013-5-5,60.0,52.5,45.7,55.3,49.8,43.2,100,91,68,27.79,27.67,4,1,14,1.37
2013-5-6,51.6,46.6,42.0,49.0,45.2,41.1,100,95,83,27.85,27.70,2,0,6,0.08
2013-5-7,68.0,54.8,46.6,51.2,45.4,37.2,100,76,34,27.91,27.82,4,1,10,0.00
2013-5-8,70.2,57.6,45.9,57.0,47.3,43.7,99,72,41,27.99,27.88,3,1,11,0.00
2013-5-9,78.4,61.7,46.2,57.1,47.2,42.9,93,64,32,28.05,27.96,3,1,7,0.00
2013-5-10,72.1,61.4,50.2,57.8,49.6,45.5,89,68,42,28.02,27.88,4,1,10,0.00
2013-5-11,74.5,61.1,57.1,61.5,56.4,50.4,97,86,45,27.94,27.82,4,1,9,0.50
2013-5-12,65.1,55.2,46.1,54.5,37.6,25.3,93,57,28,28.02,27.88,4,2,11,0.00
2013-5-13,66.6,49.7,33.4,34.8,28.4,24.1,80,49,24,28.14,27.99,4,1,9,0.00
2013-5-14,77.4,55.4,34.5,47.1,37.1,27.8,79,54,31,28.14,27.99,4,1,12,0.00
2013-5-15,86.5,66.5,49.6,54.2,46.4,39.3,89,54,22,28.08,27.91,4,1,8,0.00
2013-5-16,81.4,63.6,52.7,59.2,50.1,45.5,84,65,31,27.99,27.91,3,0,10,0.00
2013-5-17,78.4,65.3,54.7,59.2,52.5,47.6,88,66,37,28.02,27.94,3,0,6,0.00
2013-5-18,67.0,63.6,61.0,64.6,61.1,55.3,98,92,79,27.99,27.94,2,0,4,0.20
2013-5-19,65.7,62.9,57.8,65.7,62.7,57.8,100,100,98,28.02,27.91,4,0,7,2.50
2013-5-20,84.1,66.3,53.1,72.1,59.2,53.1,100,82,40,28.05,27.91,3,0,7,0.00
2013-5-21,84.1,70.6,61.1,68.4,60.5,56.3,98,73,43,27.99,27.82,3,0,6,0.00
2013-5-22,82.8,68.6,59.7,67.3,59.1,50.4,97,76,37,27.94,27.76,5,1,10,0.25
2013-5-23,79.0,67.7,60.8,63.6,53.8,42.4,99,66,34,27.91,27.82,5,1,13,0.04
2013-5-24,69.3,60.9,47.8,49.3,41.9,33.4,73,52,31,28.11,27.88,4,1,9,0.00
2013-5-25,77.8,56.8,38.3,44.9,35.6,29.8,84,52,22,28.20,28.08,3,1,6,0.00
2013-5-26,76.9,59.8,45.0,48.3,41.7,36.1,82,55,31,28.17,28.05,2,0,5,0.00
2013-5-27,82.9,64.1,47.5,54.6,46.8,41.4,83,57,31,28.14,28.02,3,1,7,0.00
2013-5-28,83.5,70.1,59.9,56.1,52.0,48.0,82,55,30,28.11,27.99,4,1,7,0.00
2013-5-29,83.8,69.1,58.8,59.5,54.3,47.8,84,62,33,28.11,28.02,3,1,6,0.00
2013-5-30,79.7,69.4,60.1,59.8,55.8,52.1,83,64,40,28.14,27.99,3,1,6,0.00
2013-5-31,80.7,70.9,63.9,60.9,57.2,53.8,79,63,43,28.11,27.96,3,1,6,0.00
2013-6-1,77.8,69.5,61.9,64.6,60.3,55.7,92,73,51,28.02,27.88,3,1,6,0.50
2013-6-2,74.0,67.9,64.0,70.5,66.1,63.1,99,94,78,27.91,27.79,3,0,8,0.62
2013-6-3,80.2,68.2,60.8,70.7,61.0,52.6,100,81,42,27.91,27.79,0,0,0,0.00
2013-6-4,84.4,67.2,56.7,65.4,55.7,51.1,97,71,34,27.96,27.88,0,0,1,0.00
2013-6-5,80.5,68.8,60.4,65.5,61.8,55.5,100,80,49,27.96,27.82,2,0,8,1.12
2013-6-6,76.8,68.2,62.6,70.0,64.4,60.9,100,89,60,27.85,27.67,2,0,4,0.00
2013-6-7,70.4,64.8,62.6,66.5,63.6,62.6,100,96,83,27.76,27.64,2,0,6,0.79
2013-6-8,78.8,66.2,59.1,70.9,60.9,54.5,100,85,47,27.99,27.76,3,0,6,0.00
2013-6-9,80.8,69.4,59.7,68.2,63.2,57.5,98,82,50,28.02,27.91,3,1,6,0.08
2013-6-10,77.8,68.4,62.4,68.5,61.8,53.6,99,82,46,27.94,27.82,4,1,8,1.00
2013-6-11,83.9,72.8,66.9,69.6,64.7,57.7,99,78,43,27.96,27.88,4,1,9,0.45
2013-6-12,88.3,78.2,63.1,71.6,66.4,60.8,96,69,46,27.99,27.88,4,1,5,0.00
2013-6-13,86.6,73.4,64.4,70.2,65.3,59.6,100,79,40,27.88,27.67,5,1,15,1.09
2013-6-14,82.2,68.2,57.8,67.5,57.8,50.7,100,74,38,27.91,27.76,4,1,5,0.00
2013-6-15,83.5,67.5,53.6,60.8,54.5,49.9,92,66,36,28.02,27.91,3,0,5,0.00
2013-6-16,84.4,69.3,55.8,65.0,56.4,51.9,91,67,36,28.05,27.91,4,1,7,0.29
2013-6-17,80.3,69.8,65.1,68.9,65.5,63.1,97,87,60,27.96,27.85,3,0,5,0.12
2013-6-18,75.6,68.8,65.8,67.8,65.1,62.4,97,88,65,27.85,27.76,4,1,8,0.17
2013-6-19,81.2,69.6,62.2,66.2,62.5,57.5,99,80,48,27.96,27.82,2,0,4,0.00
2013-6-20,80.3,68.1,60.1,65.2,61.2,56.7,96,80,47,28.08,27.96,2,0,5,0.08
2013-6-21,80.5,67.8,61.9,66.4,61.6,54.6,99,83,44,28.14,28.05,3,0,6,0.04
2013-6-22,83.3,68.0,58.1,65.6,57.1,52.1,99,73,36,28.14,27.96,3,0,5,0.00
2013-6-23,83.8,68.7,57.2,66.6,59.5,54.0,92,74,44,28.08,27.99,3,0,7,0.00
2013-6-24,82.8,72.4,63.5,68.1,62.2,57.7,96,73,44,28.11,27.99,3,1,6,0.00
2013-6-25,78.5,70.1,62.9,67.2,63.2,60.2,94,80,59,28.05,27.94,2,0,4,0.00
2013-6-26,82.0,71.1,63.5,69.8,64.6,57.1,96,81,49,27.99,27.85,4,0,9,0.04
2013-6-27,83.6,73.1,67.9,70.7,67.3,62.2,99,83,54,27.88,27.73,4,1,9,0.63
2013-6-28,84.5,71.2,63.0,73.3,65.3,56.4,100,85,38,27.76,27.58,4,1,7,0.58
2013-6-29,80.5,70.3,63.5,69.6,61.1,50.3,100,78,37,27.64,27.58,4,1,10,0.00
2013-7-1,80.0,68.6,64.7,65.7,63.2,58.2,94,84,51,27.82,27.76,5,0,7,0.33
2013-7-2,79.4,69.2,62.6,68.6,63.5,59.3,100,84,54,27.96,27.82,3,0,5,0.00
2013-7-3,68.9,65.9,64.1,66.4,65.1,62.1,100,97,82,28.08,27.96,1,0,3,1.78
2013-7-4,70.2,65.9,64.2,70.2,65.9,64.2,100,100,100,28.08,27.99,2,0,6,0.67
2013-7-6,67.5,67.4,67.3,67.5,67.4,67.3,100,100,100,28.05,28.05,0,0,0,0.00
2013-7-7,74.5,69.6,67.1,72.2,68.6,66.5,100,97,81,28.08,27.99,2,0,4,0.13
2013-7-8,82.5,71.6,66.2,71.7,67.7,62.0,100,89,53,28.08,27.99,2,0,4,0.04
2013-7-9,84.1,72.2,66.2,72.9,68.0,65.1,99,88,56,28.08,27.96,2,0,3,0.16
2013-7-10,83.9,72.2,66.9,73.7,67.4,61.5,100,86,57,28.02,27.85,4,0,10,0.00
2013-7-11,78.9,71.8,67.8,70.1,67.5,65.2,98,87,64,27.88,27.79,3,0,5,0.00
2013-7-12,83.7,72.8,67.5,70.7,64.1,56.5,99,77,45,27.85,27.79,3,0,6,0.00
2013-7-13,75.2,69.1,64.0,65.1,62.2,60.0,96,79,62,27.96,27.85,4,1,6,0.00
2013-7-14,74.1,69.5,66.9,70.3,66.8,62.8,99,91,74,28.11,27.96,3,1,7,0.21
2013-7-15,82.5,72.2,67.5,67.7,64.4,61.1,96,77,53,28.20,28.08,3,1,8,0.04
2013-7-16,82.0,71.1,64.3,70.7,66.1,61.5,99,86,50,28.20,28.14,2,0,4,0.04
2013-8-2,76.6,70.1,65.9,62.7,61.8,60.2,87,76,57,29.88,27.88,1,0,3,0.00
2013-8-3,79.2,69.7,61.7,66.2,61.5,57.1,97,77,49,29.94,29.85,2,0,6,0.04
2013-8-4,81.4,71.4,63.7,67.8,61.5,54.6,96,73,48,29.91,29.83,3,0,6,0.00
2013-8-5,86.4,69.3,59.5,66.0,57.2,52.2,91,69,35,29.94,29.83,3,0,5,0.00
2013-8-6,78.4,71.2,65.3,66.6,62.7,58.7,88,75,54,29.88,29.83,2,0,3,0.00
2013-8-7,76.9,71.6,68.2,71.5,68.0,66.2,97,89,71,29.91,29.85,2,0,4,0.25
2013-8-8,84.2,73.7,68.9,70.1,66.9,62.0,96,81,49,29.94,29.83,3,0,6,0.00
2013-8-9,84.7,74.4,67.6,70.8,65.3,59.7,94,75,46,29.94,29.85,4,0,7,0.00
2013-8-10,83.0,73.1,66.6,73.8,67.0,63.9,94,82,54,30.00,29.91,2,0,6,0.13
2013-8-24,78.9,72.8,68.2,61.2,60.0,58.7,76,65,50,30.09,30.00,2,0,6,0.00
2013-8-25,76.9,67.5,57.4,59.7,53.7,50.8,83,63,41,30.21,30.09,2,0,7,0.00
2013-8-26,77.0,65.7,55.2,60.0,54.7,50.8,90,70,43,30.18,30.00,3,0,4,0.00
2013-8-27,78.5,67.2,58.1,64.7,57.9,54.0,93,74,48,30.03,29.91,2,0,6,0.00
2013-8-28,81.2,70.2,61.1,68.2,60.8,57.6,94,74,47,29.94,29.85,2,0,6,0.00
2013-8-29,84.1,72.2,62.4,69.3,62.8,59.5,94,74,49,29.91,29.80,2,0,6,0.00
2013-8-30,83.3,72.5,65.5,70.5,64.4,60.3,93,77,47,29.91,29.80,3,0,8,0.00
2013-8-31,86.0,73.3,66.4,70.9,64.6,58.9,93,76,47,29.88,29.77,2,0,5,0.00
2013-9-1,80.0,71.2,66.9,69.9,66.3,64.0,94,85,61,29.83,29.74,3,0,6,0.08
2013-9-2,77.1,70.3,65.5,68.8,64.8,62.9,96,84,64,29.85,29.77,2,0,6,0.00
2013-9-3,80.4,71.4,65.0,69.7,61.2,53.1,97,74,40,29.85,29.77,2,0,9,0.00
2013-9-4,81.6,69.8,62.2,69.3,60.3,56.4,94,74,47,29.97,29.85,3,0,4,0.00
2013-9-5,81.8,69.2,61.5,67.0,59.0,54.1,94,73,42,30.00,29.94,2,0,4,0.00
2013-9-6,79.7,68.1,60.5,64.3,58.5,53.1,94,74,41,30.03,27.94,3,0,5,0.00
2013-9-7,79.5,67.8,57.4,63.6,57.5,52.9,91,72,43,28.02,27.88,3,0,6,0.00
2013-9-8,79.8,68.5,59.0,66.7,57.7,53.9,94,71,41,27.94,27.85,3,0,6,0.00
2013-9-9,82.7,68.9,59.8,66.8,60.4,55.5,91,75,48,28.02,27.91,2,0,5,0.00
2013-9-10,81.1,69.7,59.8,67.0,59.8,55.8,93,73,43,28.11,28.02,2,0,6,0.00
2013-9-11,82.0,69.6,60.3,67.0,59.0,55.7,94,71,43,28.11,27.99,2,0,5,0.00
2013-9-12,80.6,68.3,62.6,70.7,62.8,56.7,94,84,50,27.99,27.82,3,0,8,0.54
2013-9-13,74.7,67.3,54.4,66.5,56.3,41.9,98,71,42,27.82,27.73,2,0,8,0.00
2013-9-14,72.7,58.5,46.0,55.1,46.6,40.8,89,67,35,27.96,27.82,3,0,5,0.00
2013-9-15,75.6,62.2,49.6,61.3,51.9,44.7,94,71,42,28.08,27.96,3,0,6,0.00
2013-9-16,76.8,66.0,57.7,65.0,53.6,45.9,94,68,34,28.05,27.96,2,0,5,0.00
2013-9-17,71.1,64.3,59.2,58.8,52.9,47.7,89,68,46,28.11,28.02,2,0,7,0.00
2013-9-18,69.6,62.7,57.6,55.6,51.5,48.5,81,67,52,28.11,28.02,2,0,7,0.00
2013-9-19,76.5,64.0,52.9,59.8,53.2,48.4,91,70,43,28.08,27.96,3,0,7,0.00
2013-9-20,77.8,65.9,55.4,61.5,54.5,50.5,90,69,42,27.99,27.82,3,0,6,0.00
2013-9-21,67.6,64.2,59.3,63.7,61.1,57.3,100,90,73,27.85,27.64,3,0,6,1.45
2013-9-22,70.0,59.9,52.9,63.4,53.1,47.8,100,81,48,27.79,27.70,3,0,5,0.00
2013-9-23,71.1,58.7,48.0,60.6,49.7,44.2,98,74,46,27.91,27.79,3,0,5,0.00
2013-9-24,66.7,60.5,53.2,59.4,54.7,48.7,92,81,68,27.94,27.82,2,0,6,0.00
2013-9-25,63.6,61.9,60.8,63.6,61.0,58.2,100,97,87,27.82,27.76,1,0,4,0.87
2013-9-26,71.6,63.6,59.7,62.7,58.1,53.3,99,84,54,27.91,27.79,2,0,5,0.00
2013-9-27,71.3,61.2,51.3,58.2,52.2,46.3,96,75,44,28.05,27.91,3,0,5,0.00
2013-9-28,70.0,59.9,50.4,54.9,50.6,45.9,91,73,47,28.11,27.99,3,0,4,0.00
2013-9-29,66.9,58.0,48.7,52.5,49.2,44.0,89,74,47,28.05,27.94,2,0,4,0.00
2013-9-30,69.9,58.6,49.1,56.6,48.6,44.9,92,72,42,27.99,27.88,3,0,6,0.00
2013-10-1,72.3,59.1,48.4,59.9,50.2,43.6,90,74,48,28.08,27.96,2,0,4,0.00
2013-10-2,73.5,61.7,52.2,64.0,53.8,48.1,96,77,51,28.08,27.96,2,0,4,0.00
2013-10-3,74.8,64.7,58.5,61.9,55.0,50.9,92,73,43,28.05,27.94,3,0,8,0.00
2013-10-4,75.7,62.7,52.0,63.0,53.3,47.1,93,73,43,28.08,27.96,2,0,4,0.00
2013-10-5,78.1,64.5,54.3,65.7,54.1,49.7,97,72,41,28.05,27.91,2,0,6,0.00
2013-10-6,74.5,64.1,55.6,64.1,56.4,50.6,96,77,51,27.94,27.76,2,0,6,0.38
2013-10-7,65.6,57.9,50.0,62.1,51.6,41.7,100,81,47,27.88,27.73,3,0,6,0.66
2013-10-8,69.9,56.2,45.3,54.7,46.8,41.3,96,73,45,28.02,27.88,3,0,6,0.00
2013-10-9,71.2,58.2,47.3,51.2,47.7,42.9,89,70,45,28.08,27.96,3,0,6,0.00
2013-10-10,71.1,56.6,46.4,58.9,45.9,42.0,98,70,43,28.05,27.91,4,0,8,0.00
2013-10-11,72.2,56.5,44.6,54.5,45.0,39.8,93,68,37,27.96,27.88,2,0,6,0.00
2013-10-12,71.3,57.0,44.8,58.8,46.2,39.2,97,70,42,28.02,27.91,3,0,6,0.00
2013-10-13,72.1,58.3,46.6,58.6,49.0,41.7,96,73,45,28.11,27.99,2,0,5,0.00
2013-10-14,69.3,60.1,52.5,61.9,53.2,48.5,96,79,56,28.11,27.99,2,0,4,0.00
2013-10-15,65.3,59.4,54.3,55.3,51.4,47.9,91,76,55,28.05,27.94,3,0,5,0.00
2013-10-16,65.5,59.5,53.7,56.4,52.7,49.1,90,79,61,27.96,27.85,2,0,4,0.00
2013-10-17,66.2,61.4,56.9,64.9,59.2,52.3,98,93,83,27.88,27.79,4,0,6,0.21
2013-10-18,63.7,54.7,48.2,52.2,47.1,43.4,94,77,48,27.91,27.79,2,0,5,0.00
2013-10-19,61.2,54.0,49.9,52.7,46.5,40.7,94,77,47,27.88,27.79,3,0,8,0.00
2013-10-20,63.0,49.1,38.7,43.2,36.3,31.4,87,64,34,27.94,27.85,2,0,5,0.00
2013-10-21,65.6,48.6,34.5,52.4,36.9,28.4,96,67,36,28.02,27.91,4,0,8,0.00
2013-10-22,66.1,55.4,47.4,53.2,44.2,36.2,91,69,36,27.94,27.76,3,0,6,0.00
2013-10-23,51.6,44.7,36.0,40.0,30.4,22.3,87,60,38,27.96,27.73,3,1,12,0.00
2013-10-24,55.9,41.9,31.6,33.4,27.7,22.5,79,59,37,28.11,27.94,3,0,10,0.00
2013-10-25,49.4,38.3,27.9,31.1,19.7,15.8,62,47,31,28.29,28.08,3,1,6,0.00
2013-10-26,55.9,38.1,24.1,27.1,21.3,15.8,73,52,30,28.23,28.05,3,1,6,0.00
2013-10-27,58.5,49.6,37.4,44.3,36.7,23.1,77,62,48,28.08,28.02,2,0,6,0.00
2013-10-28,58.8,52.9,47.7,54.4,46.3,42.8,94,79,60,28.17,28.05,3,0,7,0.04
2013-10-29,65.4,54.3,46.2,54.6,47.3,44.0,94,79,50,28.23,28.14,2,0,6,0.00
2013-10-30,71.5,58.1,49.5,55.7,47.5,44.3,92,71,39,28.20,28.05,3,0,7,0.00
2013-10-31,68.5,61.7,56.1,59.4,50.5,46.1,92,68,51,28.08,27.73,3,1,8,0.08
2013-11-1,68.9,61.0,46.4,61.1,47.3,34.3,93,65,33,27.76,27.61,4,1,12,0.29
2013-11-2,61.7,47.9,36.9,44.6,32.6,25.9,86,59,34,27.96,27.70,5,1,12,0.00
2013-11-3,59.2,46.1,35.8,34.8,30.3,26.4,75,56,34,28.17,27.94,3,1,10,0.00
2013-11-4,58.2,44.3,32.5,31.9,27.2,22.6,82,54,35,28.32,28.17,3,1,8,0.00
2013-11-5,65.3,49.3,36.1,33.8,28.4,24.4,67,46,29,28.32,28.20,3,0,7,0.00
2013-11-6,66.8,57.5,44.3,53.3,45.7,25.7,90,66,46,28.23,27.99,3,1,8,0.00
2013-11-7,58.6,51.0,39.2,54.3,39.5,21.5,90,66,47,28.08,27.94,4,1,12,0.21
2013-11-8,54.9,40.5,29.5,23.7,19.6,14.7,69,44,26,28.23,28.08,4,1,8,0.00
2013-11-9,55.8,40.1,26.4,29.6,22.2,17.4,74,50,29,28.23,28.11,2,0,5,0.00
2013-11-10,64.2,46.4,35.1,33.2,26.8,22.5,73,49,25,28.20,28.11,3,1,6,0.00
2013-11-11,63.7,43.5,27.9,30.2,23.5,19.8,71,48,24,28.20,28.05,3,0,7,0.00
2013-11-12,51.7,36.4,25.3,30.8,20.0,8.0,75,51,39,28.32,28.05,5,2,12,0.00
2013-11-13,45.0,28.4,15.4,16.2,9.3,4.3,60,43,28,28.44,28.29,3,0,6,0.00
2013-11-14,58.1,33.8,17.8,21.5,11.6,6.3,62,41,17,28.35,28.14,2,0,4,0.00
2013-11-15,52.0,42.0,26.8,46.8,33.1,10.6,91,70,45,28.14,27.99,0,0,0,0.21
2013-11-16,61.6,54.8,49.3,54.4,49.7,46.8,96,83,64,28.11,28.02,2,0,5,0.00
2013-11-17,64.0,59.0,56.4,63.7,54.4,50.2,100,85,70,28.05,27.85,4,1,7,0.75
2013-11-18,64.6,55.8,45.4,64.3,36.4,21.9,99,52,28,27.96,27.82,4,2,12,0.04
2013-11-19,55.6,43.1,34.0,25.2,20.8,16.2,57,41,30,28.05,27.94,4,1,8,0.00
2013-11-20,54.3,43.7,36.0,25.8,20.5,16.6,57,39,31,28.20,28.05,4,2,8,0.00
2013-11-21,56.8,51.3,40.3,50.6,39.9,21.6,84,65,47,28.20,28.14,3,1,6,0.00
2013-11-22,61.3,56.7,54.1,56.7,52.5,48.8,94,86,81,28.17,28.02,2,0,4,0.04
2013-11-23,56.5,44.7,32.5,54.6,37.8,15.0,96,78,48,28.11,27.99,4,1,10,0.00
2013-11-24,39.1,28.6,21.2,16.1,9.5,6.3,51,42,31,28.26,28.08,4,1,8,0.04
2013-11-25,43.4,34.2,22.4,28.5,12.0,5.9,76,40,23,28.26,27.99,3,1,6,0.13
2013-11-26,46.9,43.2,35.8,46.9,41.9,27.9,100,96,73,28.02,27.58,4,0,6,3.44
2013-11-27,38.4,29.6,22.3,38.1,21.8,9.8,99,71,51,28.02,27.58,6,3,11,0.08
2013-11-28,45.0,27.9,15.3,22.3,14.7,8.1,75,57,34,28.26,28.02,2,0,4,0.00
2013-11-29,53.2,32.2,20.1,27.4,19.0,13.0,75,59,36,28.32,28.20,3,0,5,0.00
2013-11-30,52.5,36.1,27.2,23.1,19.3,14.0,70,51,29,28.32,28.14,4,1,8,0.00
2013-12-1,54.0,39.1,29.1,31.8,24.0,17.3,67,54,38,28.14,27.91,3,0,6,0.00
2013-12-2,48.9,43.2,37.4,45.2,37.8,26.7,93,81,65,27.91,27.76,1,0,3,0.13
2013-12-3,53.1,49.7,46.4,51.3,47.6,44.8,98,93,83,27.85,27.79,2,0,5,0.04
2013-12-4,65.6,56.8,51.6,60.9,53.4,50.4,100,89,62,27.96,27.85,3,0,7,0.08
2013-12-5,67.7,62.6,57.6,65.2,60.2,56.3,100,92,75,28.02,27.91,3,0,7,0.42
2013-12-6,71.2,64.6,51.1,62.6,56.6,45.9,92,76,55,27.99,27.85,6,2,16,0.74
2013-12-7,51.2,40.3,36.9,48.4,37.0,34.8,94,88,80,28.20,27.96,2,0,6,0.00
2013-12-8,45.9,43.1,39.6,45.5,41.9,37.6,100,95,89,28.17,28.05,3,0,6,1.66
2013-12-9,51.9,49.0,45.3,51.9,49.0,45.3,100,100,100,28.08,27.94,3,0,6,1.25
2013-12-10,48.9,38.8,26.0,48.9,34.2,20.4,100,84,52,28.23,27.88,6,1,10,0.66
2013-12-11,48.9,30.7,20.4,26.8,20.0,15.5,84,66,32,28.38,28.23,2,0,4,0.00
2013-12-12,38.5,29.6,22.8,22.1,13.8,5.6,71,51,29,28.38,28.26,4,1,6,0.00
2013-12-13,52.9,32.8,17.6,23.7,14.7,9.1,68,48,28,28.32,28.08,3,0,8,0.00
2013-12-14,50.2,46.2,40.7,49.0,38.1,17.8,97,77,38,28.11,27.79,3,1,8,0.54
2013-12-15,48.6,33.9,27.4,47.0,28.1,21.2,94,78,68,28.11,27.79,4,2,13,0.04
2013-12-16,27.5,25.6,23.7,21.6,20.4,18.8,79,78,75,28.14,28.11,1,0,2,0.00
2013-12-19,48.3,43.9,41.2,18.8,16.6,13.9,37,33,27,30.06,30.03,2,1,6,0.00
2013-12-20,61.4,48.8,33.8,45.6,29.2,15.9,70,48,27,30.06,29.97,4,1,10,0.00
2013-12-21,63.0,58.3,55.0,62.1,54.0,45.9,99,86,69,30.00,29.83,4,1,13,0.21
2013-12-22,65.4,57.3,52.9,63.0,55.6,52.8,100,95,72,30.00,29.80,5,1,11,3.40
2013-12-23,52.9,43.1,31.6,52.9,41.1,25.5,100,93,76,30.15,29.94,4,1,8,0.12
2013-12-24,32.2,29.4,25.3,27.1,17.8,8.5,81,59,41,30.27,30.15,5,2,10,0.00
2013-12-25,41.7,25.5,16.2,18.4,12.5,8.7,73,57,35,30.33,30.21,3,1,6,0.00
2014-1-1,47.9,41.1,27.0,24.1,21.3,18.2,78,46,38,30.24,30.03,3,1,6,0.00
2014-1-2,46.0,36.9,18.6,43.2,28.2,7.3,90,71,52,30.03,29.71,6,2,15,0.33